Time;durP1;ratioP1;P1;durP2;ratioP2;P2;SDS_P1;SDS_P2;PMS_P1;PMS_P2;Temp;Humidity;BMP_temperature;BMP_pressure;BME280_temperature;BME280_humidity;BME280_pressure;Samples;Min_cycle;Max_cycle;Signal;HPM_P1;HPM_P2
2022/10/16 00:02:51;;;;;;;14.02;8.52;;;;;;;11.76;100.00;99068.81;4996771;28;20064;-63
2022/10/16 00:05:43;;;;;;;11.60;8.02;;;;;;;11.73;100.00;99063.78;4991018;28;20069;-62
2022/10/16 00:08:28;;;;;;;14.90;8.55;;;;;;;11.76;100.00;99069.66;4986712;28;20054;-62
2022/10/16 00:11:16;;;;;;;14.70;8.60;;;;;;;11.75;100.00;99072.38;4990057;28;20394;-62
2022/10/16 00:14:02;;;;;;;12.93;8.23;;;;;;;11.77;100.00;99073.94;4990209;28;20065;-62
2022/10/16 00:16:47;;;;;;;13.82;9.05;;;;;;;11.80;100.00;99078.16;4973131;28;20054;-62
2022/10/16 00:19:33;;;;;;;15.48;9.07;;;;;;;11.80;100.00;99081.59;4989347;28;20466;-62
2022/10/16 00:22:17;;;;;;;14.40;8.30;;;;;;;11.78;100.00;99082.66;4993742;28;20114;-62
2022/10/16 00:25:09;;;;;;;12.07;7.57;;;;;;;11.76;100.00;99079.31;4986983;28;20085;-61
2022/10/16 00:27:53;;;;;;;15.82;9.48;;;;;;;11.72;100.00;99083.91;4995148;28;20108;-61
2022/10/16 00:30:38;;;;;;;15.80;9.75;;;;;;;11.72;100.00;99081.28;4992462;28;20530;-62
2022/10/16 00:33:23;;;;;;;13.80;9.07;;;;;;;11.70;100.00;99076.16;5006448;28;20069;-61
2022/10/16 00:36:11;;;;;;;16.42;9.68;;;;;;;11.76;100.00;99084.56;4990329;28;20467;-64
2022/10/16 00:38:59;;;;;;;13.73;8.70;;;;;;;11.73;100.00;99085.63;4976062;28;20073;-61
2022/10/16 00:41:43;;;;;;;12.02;8.18;;;;;;;11.73;100.00;99090.88;4990584;28;20123;-61
2022/10/16 00:44:49;;;;;;;14.48;9.48;;;;;;;11.69;100.00;99084.13;4989181;28;22057;-61
2022/10/16 00:47:44;;;;;;;17.10;9.32;;;;;;;11.66;100.00;99090.44;4988324;28;20065;-61
2022/10/16 00:50:34;;;;;;;16.75;9.40;;;;;;;11.62;100.00;99090.75;4988263;28;20034;-60
2022/10/16 00:53:19;;;;;;;14.43;8.75;;;;;;;11.60;100.00;99095.25;4989432;28;20380;-61
2022/10/16 00:56:04;;;;;;;13.63;8.35;;;;;;;11.62;100.00;99099.44;4990167;28;20048;-61
2022/10/16 00:58:49;;;;;;;14.05;9.23;;;;;;;11.58;100.00;99103.22;4990400;28;20034;-62
2022/10/16 01:01:33;;;;;;;15.35;9.43;;;;;;;11.58;100.00;99103.22;4988451;28;20524;-61
2022/10/16 01:04:18;;;;;;;14.48;9.48;;;;;;;11.58;100.00;99105.84;4989991;28;20052;-61
2022/10/16 01:07:24;;;;;;;15.07;8.80;;;;;;;11.56;100.00;99103.34;4990454;28;20034;-61
2022/10/16 01:10:33;;;;;;;18.23;9.50;;;;;;;11.60;100.00;99111.84;4991369;28;20545;-61
2022/10/16 01:13:27;;;;;;;13.90;9.38;;;;;;;11.57;100.00;99109.44;4971571;28;20047;-62
2022/10/16 01:16:26;;;;;;;15.93;9.57;;;;;;;11.59;100.00;99107.53;4986982;28;20051;-61
2022/10/16 01:19:17;;;;;;;16.42;9.68;;;;;;;11.58;100.00;99111.09;4993045;28;20044;-61
2022/10/16 01:22:04;;;;;;;17.60;10.05;;;;;;;11.55;100.00;99098.19;4997429;28;20056;-62
2022/10/16 01:24:49;;;;;;;16.20;9.10;;;;;;;11.51;100.00;99097.56;4992353;28;20489;-61
2022/10/16 01:27:37;;;;;;;14.82;9.23;;;;;;;11.54;100.00;99094.72;4988371;28;20077;-61
2022/10/16 01:30:27;;;;;;;15.20;9.40;;;;;;;11.53;100.00;99100.91;4990350;28;20041;-62
2022/10/16 01:33:21;;;;;;;16.30;10.13;;;;;;;11.52;100.00;99101.84;4987495;28;20113;-62
2022/10/16 01:36:16;;;;;;;16.38;8.70;;;;;;;11.54;100.00;99093.88;4978815;28;20046;-62
2022/10/16 01:39:02;;;;;;;13.95;9.70;;;;;;;11.57;100.00;99107.63;4979144;28;20474;-62
2022/10/16 01:41:51;;;;;;;16.63;10.25;;;;;;;11.55;100.00;99106.06;4989797;28;20466;-61
2022/10/16 01:44:38;;;;;;;13.93;9.25;;;;;;;11.53;100.00;99113.19;4992788;28;20478;-62
2022/10/16 01:47:26;;;;;;;13.38;9.10;;;;;;;11.50;100.00;99110.78;4990576;28;20039;-61
2022/10/16 01:50:14;;;;;;;13.60;9.05;;;;;;;11.48;100.00;99110.88;4991894;28;20034;-61
2022/10/16 01:53:01;;;;;;;15.75;8.65;;;;;;;11.46;100.00;99112.75;4989153;28;20147;-62
2022/10/16 01:55:49;;;;;;;15.77;9.70;;;;;;;11.44;100.00;99112.84;4992254;28;20052;-61
2022/10/16 01:58:38;;;;;;;15.98;8.88;;;;;;;11.44;100.00;99112.03;4995513;28;20540;-62
2022/10/16 02:01:26;;;;;;;14.93;9.35;;;;;;;11.43;100.00;99115.59;4991449;28;20035;-61
2022/10/16 02:04:24;;;;;;;14.38;8.95;;;;;;;11.42;100.00;99106.06;4993727;28;20116;-62
2022/10/16 02:07:10;;;;;;;16.00;8.57;;;;;;;11.41;100.00;99113.06;4992703;28;20158;-64
2022/10/16 02:09:54;;;;;;;12.23;8.38;;;;;;;11.44;100.00;99107.63;4991019;28;20141;-61
2022/10/16 02:12:45;;;;;;;16.55;9.85;;;;;;;11.45;100.00;99104.06;4996036;28;20037;-61
2022/10/16 02:15:30;;;;;;;20.17;9.35;;;;;;;11.46;100.00;99103.13;4988756;28;20042;-61
2022/10/16 02:18:15;;;;;;;14.77;9.90;;;;;;;11.51;100.00;99108.03;5006453;28;20463;-61
2022/10/16 02:21:23;;;;;;;14.43;8.98;;;;;;;11.55;100.00;99111.31;4992539;28;20137;-61
2022/10/16 02:24:11;;;;;;;14.98;9.45;;;;;;;11.58;100.00;99104.09;4994145;28;20070;-63
2022/10/16 02:27:16;;;;;;;13.88;9.10;;;;;;;11.58;100.00;99109.34;4992774;28;20120;-61
2022/10/16 02:30:08;;;;;;;16.63;9.60;;;;;;;11.58;100.00;99100.59;4996479;28;20052;-61
2022/10/16 02:32:55;;;;;;;14.98;10.00;;;;;;;11.58;100.00;99097.97;4996820;28;20085;-61
2022/10/16 02:35:43;;;;;;;16.67;10.13;;;;;;;11.60;100.00;99103.13;4997897;28;20394;-61
2022/10/16 02:38:27;;;;;;;17.23;9.80;;;;;;;11.60;100.00;99106.59;4991794;28;20050;-61
2022/10/16 02:41:14;;;;;;;16.27;10.02;;;;;;;11.64;100.00;99121.19;4994912;28;20132;-61
2022/10/16 02:43:58;;;;;;;17.17;10.40;;;;;;;11.60;100.00;99118.88;4992382;28;20052;-61
2022/10/16 02:46:43;;;;;;;14.80;9.90;;;;;;;11.60;100.00;99124.13;4988144;28;20046;-62
2022/10/16 02:49:27;;;;;;;15.20;9.25;;;;;;;11.62;100.00;99125.69;4994294;28;20038;-62
2022/10/16 02:52:12;;;;;;;14.93;9.77;;;;;;;11.59;100.00;99120.66;4991549;28;20113;-61
2022/10/16 02:54:56;;;;;;;15.63;9.63;;;;;;;11.62;100.00;99122.25;4999056;28;20042;-62
2022/10/16 02:57:42;;;;;;;15.73;9.77;;;;;;;11.62;100.00;99124.88;4994342;28;20087;-62
2022/10/16 03:00:26;;;;;;;17.25;9.38;;;;;;;11.63;100.00;99118.66;4994809;28;20092;-61
2022/10/16 03:03:11;;;;;;;16.58;9.90;;;;;;;11.61;100.00;99124.00;4992820;28;20097;-62
2022/10/16 03:05:55;;;;;;;18.88;10.45;;;;;;;11.65;100.00;99122.84;4989659;28;20057;-62
2022/10/16 03:08:40;;;;;;;17.38;10.43;;;;;;;11.64;100.00;99122.97;4990341;28;20153;-62
2022/10/16 03:11:24;;;;;;;19.30;11.32;;;;;;;11.65;100.00;99116.78;4991561;28;20478;-63
2022/10/16 03:14:09;;;;;;;18.33;11.32;;;;;;;11.68;100.00;99125.28;4997328;28;20057;-62
2022/10/16 03:16:53;;;;;;;19.45;10.38;;;;;;;11.68;100.00;99135.78;4990204;28;20121;-62
2022/10/16 03:19:38;;;;;;;17.75;11.60;;;;;;;11.68;100.00;99127.06;4996068;28;20050;-62
2022/10/16 03:22:22;;;;;;;18.33;11.55;;;;;;;11.71;100.00;99126.88;4991907;28;20393;-62
2022/10/16 03:25:07;;;;;;;17.38;12.55;;;;;;;11.72;100.00;99139.03;4992624;28;20030;-62
2022/10/16 03:27:53;;;;;;;20.48;12.50;;;;;;;11.76;100.00;99139.66;4989801;28;20519;-63
2022/10/16 03:30:39;;;;;;;19.33;12.80;;;;;;;11.79;100.00;99145.56;4991573;28;20034;-62
2022/10/16 03:33:24;;;;;;;21.48;12.52;;;;;;;11.74;100.00;99141.56;4992374;28;20062;-62
2022/10/16 03:36:10;;;;;;;18.92;12.23;;;;;;;11.68;100.00;99156.78;4999748;28;20100;-62
2022/10/16 03:38:55;;;;;;;21.17;11.75;;;;;;;11.65;100.00;99156.97;5008098;28;20054;-62
2022/10/16 03:41:40;;;;;;;18.17;11.57;;;;;;;11.63;100.00;99161.50;4995945;28;20066;-62
2022/10/16 03:44:24;;;;;;;16.98;11.18;;;;;;;11.48;100.00;99152.84;4989346;28;20121;-62
2022/10/16 03:47:09;;;;;;;18.83;10.82;;;;;;;11.41;100.00;99167.31;4991612;28;20113;-62
2022/10/16 03:49:54;;;;;;;15.95;10.38;;;;;;;11.32;100.00;99164.38;4991108;28;20046;-64
2022/10/16 03:52:38;;;;;;;16.67;10.27;;;;;;;11.28;100.00;99159.41;4992128;28;20038;-63
2022/10/16 03:55:22;;;;;;;18.30;10.43;;;;;;;11.20;100.00;99157.28;4990022;28;20057;-62
2022/10/16 03:58:07;;;;;;;14.93;9.63;;;;;;;11.14;100.00;99166.41;5004756;28;20068;-62
2022/10/16 04:00:52;;;;;;;14.60;10.00;;;;;;;11.13;100.00;99171.75;4990873;28;20038;-61
2022/10/16 04:03:37;;;;;;;17.92;11.00;;;;;;;11.09;100.00;99171.94;4993257;28;20062;-62
2022/10/16 04:06:21;;;;;;;19.20;11.05;;;;;;;11.08;100.00;99174.66;4991405;28;20061;-63
2022/10/16 04:09:06;;;;;;;21.05;12.27;;;;;;;11.06;100.00;99172.16;4992295;28;20046;-62
2022/10/16 04:11:50;;;;;;;20.13;12.82;;;;;;;11.08;100.00;99172.88;4992072;28;20045;-62
2022/10/16 04:14:35;;;;;;;20.80;12.63;;;;;;;11.08;100.00;99170.25;4991121;28;20078;-62
2022/10/16 04:17:20;;;;;;;23.08;11.25;;;;;;;11.08;100.00;99179.91;5003852;28;20462;-62
2022/10/16 04:20:05;;;;;;;21.02;13.18;;;;;;;11.08;100.00;99191.22;4986715;28;20184;-63
2022/10/16 04:22:49;;;;;;;20.20;13.70;;;;;;;11.06;100.00;99177.41;4989825;28;20034;-61
2022/10/16 04:25:34;;;;;;;20.48;12.38;;;;;;;11.07;100.00;99179.06;4990128;28;20042;-61
2022/10/16 04:28:19;;;;;;;20.20;12.88;;;;;;;11.10;100.00;99170.16;4994195;28;20110;-62
2022/10/16 04:31:05;;;;;;;16.90;11.68;;;;;;;11.08;100.00;99183.34;4991221;28;20057;-64
2022/10/16 04:33:49;;;;;;;18.70;11.40;;;;;;;11.07;100.00;99183.47;5009565;28;20050;-62
2022/10/16 04:36:34;;;;;;;17.75;11.07;;;;;;;11.01;100.00;99189.94;4992049;28;20140;-63
2022/10/16 04:39:19;;;;;;;20.08;11.77;;;;;;;10.96;100.00;99179.75;4990062;28;20115;-62
2022/10/16 04:42:04;;;;;;;19.45;12.63;;;;;;;10.88;100.00;99184.66;4992810;28;20038;-62
2022/10/16 04:44:49;;;;;;;18.08;12.27;;;;;;;10.86;100.00;99183.91;4989174;28;20038;-61
2022/10/16 04:47:33;;;;;;;19.85;13.13;;;;;;;10.83;100.00;99178.84;4990570;28;20054;-60
2022/10/16 04:50:18;;;;;;;20.05;12.82;;;;;;;10.79;100.00;99182.56;4988141;28;20520;-61
2022/10/16 04:53:21;;;;;;;21.85;12.20;;;;;;;10.82;100.00;99198.97;4991407;28;20042;-62
2022/10/16 04:56:06;;;;;;;20.40;12.55;;;;;;;10.75;100.00;99197.69;4991803;28;20050;-62
2022/10/16 04:58:50;;;;;;;20.80;13.43;;;;;;;10.76;100.00;99198.50;4990540;28;20454;-60
2022/10/16 05:01:35;;;;;;;20.20;12.63;;;;;;;10.74;100.00;99198.59;4991359;28;20125;-64
2022/10/16 05:04:20;;;;;;;20.65;13.20;;;;;;;10.71;100.00;99202.25;4990699;28;20030;-62
2022/10/16 05:07:04;;;;;;;19.38;12.68;;;;;;;10.69;100.00;99201.50;4987971;28;20117;-63
2022/10/16 05:09:48;;;;;;;19.85;12.38;;;;;;;10.70;100.00;99194.50;4988953;28;20034;-61
2022/10/16 05:12:34;;;;;;;19.10;11.70;;;;;;;10.69;100.00;99198.06;4994312;28;20053;-62
2022/10/16 05:15:25;;;;;;;21.77;12.65;;;;;;;10.66;100.00;99204.31;4989543;28;20397;-62
2022/10/16 05:18:10;;;;;;;19.30;12.00;;;;;;;10.62;100.00;99210.69;4990826;28;20093;-62
2022/10/16 05:20:57;;;;;;;20.15;12.18;;;;;;;10.60;100.00;99209.94;4990683;28;20096;-61
2022/10/16 05:23:41;;;;;;;21.90;12.45;;;;;;;10.63;100.00;99212.38;4985031;28;20037;-61
2022/10/16 05:26:25;;;;;;;21.67;12.52;;;;;;;10.65;100.00;99221.00;4989292;28;20037;-62
2022/10/16 05:29:11;;;;;;;18.02;12.10;;;;;;;10.69;100.00;99232.13;5001835;28;20038;-63
2022/10/16 05:31:58;;;;;;;19.75;12.30;;;;;;;10.74;100.00;99237.91;4993973;28;20066;-61
2022/10/16 05:34:43;;;;;;;20.23;11.73;;;;;;;10.79;100.00;99235.00;4996808;28;20455;-61
2022/10/16 05:37:28;;;;;;;24.70;13.55;;;;;;;10.78;100.00;99230.69;4995379;28;20534;-62
2022/10/16 05:40:14;;;;;;;20.85;13.07;;;;;;;10.86;100.00;99225.81;4992561;28;20046;-62
2022/10/16 05:43:01;;;;;;;16.38;11.20;;;;;;;10.92;100.00;99229.81;4993756;28;20044;-62
2022/10/16 05:46:01;;;;;;;21.27;12.02;;;;;;;11.04;100.00;99230.84;4993168;28;20113;-61
2022/10/16 05:48:47;;;;;;;20.02;10.90;;;;;;;11.08;100.00;99242.84;4984211;28;20432;-62
2022/10/16 05:51:32;;;;;;;18.77;11.48;;;;;;;11.15;100.00;99233.63;4994264;28;20038;-62
2022/10/16 05:54:17;;;;;;;15.93;9.85;;;;;;;11.31;100.00;99251.03;4993548;28;20433;-61
2022/10/16 05:57:02;;;;;;;19.42;10.88;;;;;;;11.32;100.00;99248.31;5003327;28;20343;-61
2022/10/16 05:59:49;;;;;;;19.80;11.43;;;;;;;11.48;100.00;99255.19;4995492;28;20046;-61
2022/10/16 06:02:34;;;;;;;17.55;11.15;;;;;;;11.61;100.00;99262.25;4992099;28;20535;-61
2022/10/16 06:05:18;;;;;;;17.58;10.23;;;;;;;11.76;100.00;99263.03;4981755;28;20037;-60
2022/10/16 06:08:03;;;;;;;15.90;10.40;;;;;;;11.94;100.00;99272.34;4994498;28;20042;-60
2022/10/16 06:10:49;;;;;;;16.00;10.57;;;;;;;12.09;100.00;99277.53;4991069;28;20109;-61
2022/10/16 06:13:33;;;;;;;15.43;10.10;;;;;;;12.23;100.00;99281.00;4993988;28;20042;-60
2022/10/16 06:16:18;;;;;;;16.33;9.07;;;;;;;12.47;100.00;99283.75;4993775;28;20465;-61
2022/10/16 06:19:06;;;;;;;17.60;10.02;;;;;;;12.32;100.00;99283.03;4995720;28;20038;-60
2022/10/16 06:21:50;;;;;;;14.40;9.35;;;;;;;12.27;100.00;99285.94;4995088;28;20054;-61
2022/10/16 06:24:35;;;;;;;18.40;9.75;;;;;;;12.00;100.00;99284.19;4991860;28;20034;-60
2022/10/16 06:27:19;;;;;;;16.98;10.57;;;;;;;12.18;100.00;99282.16;4989852;28;20109;-60
2022/10/16 06:30:04;;;;;;;17.67;10.15;;;;;;;12.41;100.00;99294.69;4993663;28;20445;-60
2022/10/16 06:32:49;;;;;;;15.13;9.32;;;;;;;12.37;100.00;99285.34;4988492;28;20034;-60
2022/10/16 06:35:33;;;;;;;15.43;9.13;;;;;;;12.31;100.00;99295.31;4995051;28;20055;-61
2022/10/16 06:38:18;;;;;;;15.60;9.50;;;;;;;12.13;100.00;99300.00;4994089;28;20030;-61
2022/10/16 06:41:04;;;;;;;13.65;9.13;;;;;;;12.22;100.00;99311.69;5005094;28;20042;-61
2022/10/16 06:43:49;;;;;;;15.30;9.82;;;;;;;12.68;100.00;99309.53;4990554;28;20501;-61
2022/10/16 06:46:33;;;;;;;14.68;9.80;;;;;;;12.98;100.00;99310.09;4991882;28;20034;-61
2022/10/16 06:49:22;;;;;;;18.40;9.38;;;;;;;13.13;98.76;99310.81;4987484;28;20072;-65
2022/10/16 06:52:06;;;;;;;13.65;9.18;;;;;;;13.13;99.04;99327.47;4990369;28;20536;-60
2022/10/16 06:54:51;;;;;;;12.88;8.80;;;;;;;13.40;97.65;99329.06;4995343;28;20394;-61
2022/10/16 06:57:35;;;;;;;14.57;9.75;;;;;;;13.38;97.60;99335.41;4989233;28;20116;-63
2022/10/16 07:00:21;;;;;;;17.00;9.32;;;;;;;13.77;95.44;99336.13;4990008;28;20085;-61
2022/10/16 07:03:05;;;;;;;14.63;10.20;;;;;;;13.95;93.94;99334.91;4989572;28;20054;-61
2022/10/16 07:05:50;;;;;;;13.35;8.40;;;;;;;14.14;93.15;99337.00;4989936;28;20117;-61
2022/10/16 07:08:37;;;;;;;15.77;9.15;;;;;;;14.34;91.33;99343.44;4991244;28;20031;-61
2022/10/16 07:11:23;;;;;;;15.25;8.50;;;;;;;14.39;90.30;99338.63;4989699;28;20101;-61
2022/10/16 07:14:19;;;;;;;12.45;8.18;;;;;;;14.82;87.67;99344.25;4992454;28;20038;-61
2022/10/16 07:17:04;;;;;;;13.55;8.05;;;;;;;14.77;87.77;99341.13;5001342;28;20343;-61
2022/10/16 07:19:52;;;;;;;12.00;8.02;;;;;;;14.75;88.10;99343.03;4990539;28;20041;-61
2022/10/16 07:22:37;;;;;;;12.15;7.60;;;;;;;15.15;86.53;99339.94;4988354;28;20387;-61
2022/10/16 07:25:22;;;;;;;15.65;8.10;;;;;;;15.11;85.43;99346.41;5005087;28;20078;-61
2022/10/16 07:28:06;;;;;;;13.85;7.65;;;;;;;15.07;86.33;99352.03;4989269;28;20120;-63
2022/10/16 07:30:51;;;;;;;12.30;7.70;;;;;;;15.55;84.28;99353.56;4990513;28;20482;-61
2022/10/16 07:33:36;;;;;;;14.23;7.70;;;;;;;15.83;82.76;99342.56;4992241;28;20045;-61
2022/10/16 07:36:21;;;;;;;12.80;7.57;;;;;;;16.05;82.41;99338.19;4993343;28;20084;-62
2022/10/16 07:39:06;;;;;;;12.38;8.43;;;;;;;16.03;80.03;99346.25;4996349;28;20030;-63
2022/10/16 07:41:51;;;;;;;12.27;6.97;;;;;;;15.99;81.33;99342.19;4989179;28;20113;-63
2022/10/16 07:44:36;;;;;;;10.52;6.88;;;;;;;16.24;79.15;99348.91;5003399;28;20113;-63
2022/10/16 07:47:21;;;;;;;13.02;7.50;;;;;;;16.55;79.97;99356.06;4987909;28;20489;-63
2022/10/16 07:50:05;;;;;;;22.25;8.07;;;;;;;16.55;78.09;99360.53;4992791;28;20092;-62
2022/10/16 07:52:50;;;;;;;13.00;8.18;;;;;;;16.72;77.38;99369.69;4991530;28;20064;-62
2022/10/16 07:55:38;;;;;;;12.85;7.20;;;;;;;16.62;77.74;99364.31;4992239;28;20042;-62
2022/10/16 07:58:22;;;;;;;11.98;8.02;;;;;;;16.34;79.17;99367.50;4990606;28;20038;-62
2022/10/16 08:01:09;;;;;;;13.50;7.22;;;;;;;16.82;76.40;99373.22;4990884;28;20038;-63
2022/10/16 08:03:53;;;;;;;15.70;8.15;;;;;;;17.39;75.44;99371.09;4994250;28;20559;-62
2022/10/16 08:06:40;;;;;;;13.65;7.88;;;;;;;18.29;73.33;99360.50;4994525;28;20050;-62
2022/10/16 08:09:25;;;;;;;11.27;6.88;;;;;;;18.87;70.05;99365.00;4990492;28;20046;-63
2022/10/16 08:12:10;;;;;;;12.95;7.18;;;;;;;19.68;66.71;99368.00;4994879;28;20427;-64
2022/10/16 08:14:54;;;;;;;12.98;7.70;;;;;;;19.33;65.86;99371.28;4995129;28;20580;-62
2022/10/16 08:17:39;;;;;;;10.38;6.82;;;;;;;19.37;65.81;99370.97;4990783;28;20050;-62
2022/10/16 08:20:25;;;;;;;11.38;7.97;;;;;;;18.75;68.36;99367.84;4994655;28;20038;-62
2022/10/16 08:23:12;;;;;;;10.82;7.13;;;;;;;18.13;70.64;99366.38;4991921;28;20489;-61
2022/10/16 08:26:04;;;;;;;12.30;7.40;;;;;;;16.93;75.41;99374.09;4990971;28;20069;-61
2022/10/16 08:28:51;;;;;;;13.70;7.32;;;;;;;17.41;75.17;99377.13;4992555;28;20058;-63
2022/10/16 08:31:35;;;;;;;13.63;8.15;;;;;;;16.96;74.80;99395.84;4993609;28;20481;-63
2022/10/16 08:34:20;;;;;;;14.82;8.35;;;;;;;16.11;79.99;99391.38;4993747;28;20057;-62
2022/10/16 08:37:04;;;;;;;12.57;8.43;;;;;;;15.74;82.16;99389.91;4988362;28;20030;-62
2022/10/16 08:39:50;;;;;;;12.93;8.40;;;;;;;15.65;83.61;99393.28;4994641;28;20125;-61
2022/10/16 08:42:52;;;;;;;15.85;9.13;;;;;;;15.46;83.86;99402.66;4991319;28;20470;-61
2022/10/16 08:45:49;;;;;;;13.00;8.73;;;;;;;15.98;82.86;99406.53;4987379;28;20447;-61
2022/10/16 08:48:54;;;;;;;13.63;7.15;;;;;;;16.08;82.95;99412.78;4990277;28;20042;-62
2022/10/16 08:51:40;;;;;;;14.80;8.93;;;;;;;15.95;83.29;99404.97;4990159;28;20034;-62
2022/10/16 08:54:36;;;;;;;13.63;8.55;;;;;;;17.41;76.14;99409.75;4999496;28;20037;-63
2022/10/16 08:57:23;;;;;;;13.70;8.52;;;;;;;17.83;74.25;99410.53;4989306;28;20109;-62
2022/10/16 09:00:13;;;;;;;17.00;9.05;;;;;;;18.55;71.92;99393.56;4988016;28;20046;-62
2022/10/16 09:03:32;;;;;;;16.05;8.93;;;;;;;18.81;69.11;99403.56;4991638;28;20050;-61
2022/10/16 09:06:44;;;;;;;15.55;8.27;;;;;;;19.11;67.87;99399.00;4989875;28;20470;-63
2022/10/16 09:09:58;;;;;;;14.57;9.52;;;;;;;19.25;66.85;99395.06;4985876;28;20061;-62
2022/10/16 09:12:57;;;;;;;16.15;9.38;;;;;;;19.50;68.49;99406.00;4990903;28;20039;-62
2022/10/16 09:15:41;;;;;;;13.27;8.07;;;;;;;19.92;68.79;99407.28;4991150;28;20085;-63
2022/10/16 09:18:47;;;;;;;16.98;9.20;;;;;;;21.45;62.57;99412.53;4988724;28;20088;-63
2022/10/16 09:21:38;;;;;;;16.48;9.05;;;;;;;21.53;60.54;99401.06;4989096;28;20143;-63
2022/10/16 09:24:25;;;;;;;16.77;9.50;;;;;;;21.74;59.29;99405.97;4992259;28;20042;-64
2022/10/16 09:27:12;;;;;;;16.67;9.80;;;;;;;20.51;62.82;99405.16;4991639;28;20049;-63
2022/10/16 09:29:56;;;;;;;19.25;10.27;;;;;;;21.15;61.86;99404.09;4989943;28;20338;-65
2022/10/16 09:32:43;;;;;;;14.82;8.93;;;;;;;20.97;64.45;99404.97;4992656;28;20041;-64
2022/10/16 09:35:33;;;;;;;16.77;9.35;;;;;;;21.11;62.01;99408.06;4988677;28;20039;-65
2022/10/16 09:38:32;;;;;;;15.75;9.02;;;;;;;21.19;61.13;99415.25;5006396;28;20073;-64
2022/10/16 09:41:20;;;;;;;16.25;10.23;;;;;;;21.16;60.43;99417.25;4987157;28;20049;-64
2022/10/16 09:44:38;;;;;;;13.82;8.35;;;;;;;22.07;59.43;99420.41;4997572;28;20050;-65
2022/10/16 09:47:31;;;;;;;14.30;8.90;;;;;;;22.90;59.71;99415.06;4991079;28;20042;-62
2022/10/16 09:50:23;;;;;;;17.38;9.98;;;;;;;23.62;55.39;99421.38;4986876;28;20061;-65
2022/10/16 09:53:14;;;;;;;16.90;9.63;;;;;;;23.46;55.90;99424.09;4987345;28;20498;-63
2022/10/16 09:55:59;;;;;;;16.85;9.82;;;;;;;22.57;56.87;99423.91;4990063;28;20097;-63
2022/10/16 09:58:51;;;;;;;15.88;9.43;;;;;;;22.72;59.14;99426.78;4995463;28;20034;-64
2022/10/16 10:01:40;;;;;;;16.63;10.10;;;;;;;23.30;58.87;99430.31;4986689;28;20137;-62
2022/10/16 10:04:28;;;;;;;16.73;9.68;;;;;;;23.57;55.56;99428.22;4992367;28;20034;-64
2022/10/16 10:07:24;;;;;;;20.85;11.25;;;;;;;23.18;53.71;99427.19;4987474;28;20038;-63
2022/10/16 10:10:29;;;;;;;15.57;9.52;;;;;;;23.24;56.31;99427.31;4988261;28;20478;-63
2022/10/16 10:13:23;;;;;;;20.67;11.48;;;;;;;22.28;56.76;99426.09;4987519;28;20121;-63
2022/10/16 10:16:08;;;;;;;19.77;11.35;;;;;;;22.25;58.38;99436.25;4980750;28;20483;-63
2022/10/16 10:19:00;;;;;;;16.63;8.90;;;;;;;23.83;55.31;99421.75;5002151;28;20128;-63
2022/10/16 10:21:45;;;;;;;15.98;9.80;;;;;;;25.03;52.48;99421.34;4991980;28;20034;-64
2022/10/16 10:24:29;;;;;;;18.63;10.82;;;;;;;25.32;49.57;99418.81;4992470;28;20360;-63
2022/10/16 10:27:17;;;;;;;17.77;9.00;;;;;;;25.26;50.63;99419.56;4994384;28;20107;-62
2022/10/16 10:30:45;;;;;;;15.93;10.10;;;;;;;25.31;49.32;99417.16;4991584;28;20508;-62
2022/10/16 10:33:48;;;;;;;21.77;10.98;;;;;;;25.04;49.43;99416.78;4935341;28;20047;-63
2022/10/16 10:36:40;;;;;;;19.30;10.45;;;;;;;24.35;52.79;99422.91;4952870;28;20418;-64
2022/10/16 10:39:32;;;;;;;14.63;9.25;;;;;;;24.58;53.15;99410.53;4955268;28;20039;-64
2022/10/16 10:42:20;;;;;;;18.45;10.02;;;;;;;24.93;51.92;99412.72;4958600;28;20604;-64
2022/10/16 10:45:36;;;;;;;17.83;10.50;;;;;;;25.32;49.66;99416.97;4947978;28;20051;-65
2022/10/16 10:48:28;;;;;;;17.20;10.60;;;;;;;25.36;52.00;99422.81;4948697;28;20127;-63
2022/10/16 10:51:19;;;;;;;16.40;10.90;;;;;;;24.99;49.37;99421.88;4946252;28;20573;-63
2022/10/16 10:54:22;;;;;;;16.15;11.00;;;;;;;25.54;49.49;99418.88;4956409;28;20129;-64
2022/10/16 10:57:19;;;;;;;12.90;8.52;;;;;;;25.52;50.08;99415.56;4949377;28;20462;-63
2022/10/16 11:00:32;;;;;;;19.20;12.25;;;;;;;24.36;51.27;99423.75;4910153;29;20376;-62
2022/10/16 11:04:04;;;;;;;18.13;11.50;;;;;;;24.18;52.13;99432.94;4899767;29;20055;-62
2022/10/16 11:07:23;;;;;;;17.63;10.88;;;;;;;24.29;52.72;99420.97;4908993;29;20072;-62
2022/10/16 11:10:30;;;;;;;17.70;11.10;;;;;;;26.22;50.16;99420.47;4870756;29;20045;-65
2022/10/16 11:13:53;;;;;;;15.52;10.50;;;;;;;26.02;48.42;99414.88;4902822;29;20319;-62
2022/10/16 11:16:52;;;;;;;21.55;12.40;;;;;;;24.37;51.22;99414.72;4900561;29;20126;-64
2022/10/16 11:19:45;;;;;;;21.48;14.35;;;;;;;24.69;51.63;99414.63;4897866;29;20048;-64
2022/10/16 11:22:34;;;;;;;17.40;10.80;;;;;;;25.04;52.52;99412.25;4902331;29;20111;-64
2022/10/16 11:25:30;;;;;;;21.08;12.27;;;;;;;25.09;52.09;99407.19;4906588;29;20098;-64
2022/10/16 11:28:24;;;;;;;18.77;12.07;;;;;;;24.88;50.97;99397.16;4896397;29;20045;-62
2022/10/16 11:31:40;;;;;;;20.95;10.85;;;;;;;25.73;48.37;99403.22;4938630;28;20107;-62
2022/10/16 11:34:55;;;;;;;18.20;11.82;;;;;;;26.19;47.57;99404.75;4978620;28;20121;-61
2022/10/16 11:37:44;;;;;;;21.30;12.35;;;;;;;25.32;50.14;99402.72;4990789;28;20045;-62
2022/10/16 11:40:34;;;;;;;13.38;9.50;;;;;;;25.69;50.61;99395.56;5006826;28;20458;-63
2022/10/16 11:43:24;;;;;;;16.17;9.40;;;;;;;26.75;47.78;99386.19;4992672;28;20099;-62
2022/10/16 11:46:15;;;;;;;18.73;11.75;;;;;;;26.40;45.90;99403.91;4991681;28;20038;-61
2022/10/16 11:49:15;;;;;;;23.13;11.63;;;;;;;26.18;49.33;99397.69;4989460;28;20034;-63
2022/10/16 11:52:10;;;;;;;;;;;;;;;26.96;46.66;99384.44;4990714;28;20054;-60
2022/10/16 11:55:12;;;;;;;18.30;11.15;;;;;;;27.05;45.80;99391.34;4990277;28;19918;-60
2022/10/16 11:58:04;;;;;;;19.70;12.15;;;;;;;26.14;46.36;99397.25;4975158;28;20080;-60
2022/10/16 12:01:27;;;;;;;17.73;11.23;;;;;;;25.94;49.69;99408.63;4975060;28;20039;-63
2022/10/16 12:04:23;;;;;;;18.65;11.20;;;;;;;25.99;47.94;99397.31;4993837;28;20384;-62
2022/10/16 12:07:24;;;;;;;14.73;10.73;;;;;;;26.02;48.87;99401.47;4988614;28;20116;-62
2022/10/16 12:10:27;;;;;;;19.92;12.45;;;;;;;25.28;49.52;99393.41;4975545;28;20042;-62
2022/10/16 12:13:32;;;;;;;18.52;12.18;;;;;;;24.73;48.84;99398.00;5002156;28;20442;-63
2022/10/16 12:16:16;;;;;;;16.48;11.52;;;;;;;25.18;49.75;99391.81;4994465;28;20033;-63
2022/10/16 12:19:16;;;;;;;16.70;10.20;;;;;;;26.45;48.40;99392.59;4991061;28;20087;-63
2022/10/16 12:22:03;;;;;;;18.47;12.20;;;;;;;24.73;52.47;99392.63;4974647;28;20052;-63
2022/10/16 12:24:51;;;;;;;17.67;12.00;;;;;;;24.92;50.29;99389.63;4989893;28;20390;-63
2022/10/16 12:27:36;;;;;;;17.95;11.15;;;;;;;25.39;49.33;99395.63;4990035;28;20109;-63
2022/10/16 12:30:24;;;;;;;17.02;10.20;;;;;;;25.25;52.02;99388.44;4991250;28;20038;-64
2022/10/16 12:33:23;;;;;;;17.00;10.45;;;;;;;25.68;50.23;99387.72;4978312;28;20041;-63
2022/10/16 12:36:26;;;;;;;15.75;11.38;;;;;;;25.40;50.25;99373.13;4983574;28;20137;-63
2022/10/16 12:39:21;;;;;;;19.70;11.93;;;;;;;26.81;45.17;99383.56;4989742;28;20122;-63
2022/10/16 12:42:29;;;;;;;18.60;10.95;;;;;;;25.44;49.24;99393.22;4988943;28;20121;-64
2022/10/16 12:45:33;;;;;;;14.23;9.40;;;;;;;25.63;50.72;99382.06;4986778;28;20058;-64
2022/10/16 12:48:22;;;;;;;15.45;10.25;;;;;;;26.89;46.06;99379.88;4991943;28;20066;-63
2022/10/16 12:51:34;;;;;;;16.45;10.27;;;;;;;25.75;48.35;99399.34;4992683;28;20057;-61
2022/10/16 12:54:38;;;;;;;14.82;10.70;;;;;;;25.51;49.33;99406.66;4983855;28;20433;-63
2022/10/16 12:57:40;;;;;;;17.95;10.45;;;;;;;24.93;49.69;99402.84;4990781;28;20034;-62
2022/10/16 13:00:35;;;;;;;16.10;10.35;;;;;;;25.91;48.18;99406.34;4986950;28;20045;-62
2022/10/16 13:03:29;;;;;;;17.10;10.80;;;;;;;26.24;47.31;99409.53;4993510;28;20077;-62